createdAt,value
2019-02-18T00:00:06.747Z,1016.56
2019-02-18T00:01:06.736Z,1016.63
2019-02-18T00:02:06.724Z,1016.62
2019-02-18T00:03:06.713Z,1016.63
2019-02-18T00:04:06.702Z,1016.60
2019-02-18T00:05:06.691Z,1016.56
2019-02-18T00:06:06.683Z,1016.52
2019-02-18T00:07:14.023Z,1016.54
2019-02-18T00:08:07.658Z,1016.52
2019-02-18T00:09:06.649Z,1016.50
2019-02-18T00:10:06.636Z,1016.49
2019-02-18T00:11:06.625Z,1016.47
2019-02-18T00:12:06.614Z,1016.48
2019-02-18T00:13:06.602Z,1016.47
2019-02-18T00:14:06.593Z,1016.47
2019-02-18T00:15:06.581Z,1016.47
2019-02-18T00:16:06.570Z,1016.44
2019-02-18T00:17:06.559Z,1016.42
2019-02-18T00:18:06.548Z,1016.45
2019-02-18T00:19:06.537Z,1016.41
2019-02-18T00:20:06.528Z,1016.46
2019-02-18T00:21:06.517Z,1016.43
2019-02-18T00:22:06.504Z,1016.40
2019-02-18T00:23:06.493Z,1016.41
2019-02-18T00:24:06.483Z,1016.45
2019-02-18T00:25:06.477Z,1016.36
2019-02-18T00:26:06.460Z,1016.41
2019-02-18T00:27:06.458Z,1016.40
2019-02-18T00:28:06.440Z,1016.42
2019-02-18T00:29:06.432Z,1016.42
2019-02-18T00:30:06.416Z,1016.42
2019-02-18T00:31:06.413Z,1016.37
2019-02-18T00:32:06.399Z,1016.39
2019-02-18T00:33:06.382Z,1016.39
2019-02-18T00:34:06.372Z,1016.37
2019-02-18T00:35:06.384Z,1016.34
2019-02-18T00:36:06.352Z,1016.37
2019-02-18T00:37:06.338Z,1016.38
2019-02-18T00:38:06.328Z,1016.35
2019-02-18T00:39:06.316Z,1016.33
2019-02-18T00:40:06.306Z,1016.33
2019-02-18T00:41:06.295Z,1016.29
2019-02-18T00:42:06.283Z,1016.27
2019-02-18T00:43:06.272Z,1016.28
2019-02-18T00:44:06.262Z,1016.31
2019-02-18T00:45:06.253Z,1016.29
2019-02-18T00:46:06.240Z,1016.28
2019-02-18T00:47:06.229Z,1016.29
2019-02-18T00:48:06.218Z,1016.28
2019-02-18T00:49:06.208Z,1016.28
2019-02-18T00:50:06.196Z,1016.30
2019-02-18T00:51:06.186Z,1016.31
2019-02-18T00:52:06.174Z,1016.33
2019-02-18T00:53:06.164Z,1016.33
2019-02-18T00:54:06.151Z,1016.26
2019-02-18T00:55:06.238Z,1016.33
2019-02-18T00:56:06.129Z,1016.31
2019-02-18T00:57:06.120Z,1016.37
2019-02-18T00:58:06.108Z,1016.38
2019-02-18T00:59:06.098Z,1016.32
2019-02-18T01:00:06.088Z,1016.34
2019-02-18T01:01:06.077Z,1016.32
2019-02-18T01:02:06.065Z,1016.31
2019-02-18T01:03:06.056Z,1016.31
2019-02-18T01:04:06.045Z,1016.32
2019-02-18T01:05:06.036Z,1016.29
2019-02-18T01:06:06.021Z,1016.26
2019-02-18T01:07:06.015Z,1016.26
2019-02-18T01:08:05.998Z,1016.31
2019-02-18T01:09:05.987Z,1016.27
2019-02-18T01:10:05.982Z,1016.28
2019-02-18T01:11:05.966Z,1016.27
2019-02-18T01:12:05.958Z,1016.29
2019-02-18T01:13:05.943Z,1016.29
2019-02-18T01:14:05.933Z,1016.28
2019-02-18T01:15:05.921Z,1016.25
2019-02-18T01:16:05.909Z,1016.23
2019-02-18T01:17:05.901Z,1016.23
2019-02-18T01:18:05.893Z,1016.21
2019-02-18T01:19:05.877Z,1016.21
2019-02-18T01:20:05.866Z,1016.21
2019-02-18T01:21:05.856Z,1016.18
2019-02-18T01:22:05.845Z,1016.17
2019-02-18T01:23:05.836Z,1016.21
2019-02-18T01:24:05.822Z,1016.17
2019-02-18T01:25:05.812Z,1016.14
2019-02-18T01:26:05.800Z,1016.11
2019-02-18T01:27:05.790Z,1016.12
2019-02-18T01:28:05.779Z,1016.16
2019-02-18T01:29:05.770Z,1016.12
2019-02-18T01:30:05.767Z,1016.12
2019-02-18T01:31:05.745Z,1016.12
2019-02-18T01:32:05.735Z,1016.12
2019-02-18T01:33:05.792Z,1016.12
2019-02-18T01:34:05.714Z,1016.11
2019-02-18T01:35:05.701Z,1016.07
2019-02-18T01:36:05.692Z,1016.06
2019-02-18T01:37:05.679Z,1016.02
2019-02-18T01:38:05.668Z,1016.05
2019-02-18T01:39:05.658Z,1016.02
2019-02-18T01:40:05.648Z,1016.01
2019-02-18T01:41:05.636Z,1016.01
2019-02-18T01:42:05.624Z,1015.99
2019-02-18T01:43:05.616Z,1015.97
2019-02-18T01:44:05.604Z,1015.96
2019-02-18T01:45:05.593Z,1015.99
2019-02-18T01:46:05.581Z,1015.98
2019-02-18T01:47:05.570Z,1015.98
2019-02-18T01:48:05.561Z,1016.00
2019-02-18T01:49:05.547Z,1015.93
2019-02-18T01:50:05.538Z,1015.92
2019-02-18T01:51:05.530Z,1015.93
2019-02-18T01:52:05.517Z,1015.96
2019-02-18T01:53:05.516Z,1015.96
2019-02-18T01:54:05.493Z,1015.95
2019-02-18T01:55:05.484Z,1015.92
2019-02-18T01:56:05.473Z,1015.95
2019-02-18T01:57:05.460Z,1015.98
2019-02-18T01:58:05.449Z,1015.99
2019-02-18T01:59:05.439Z,1015.94
2019-02-18T02:00:05.427Z,1015.95
2019-02-18T02:01:05.416Z,1015.94
2019-02-18T02:02:05.405Z,1015.93
2019-02-18T02:03:05.394Z,1015.94
2019-02-18T02:04:05.383Z,1015.92
2019-02-18T02:05:05.380Z,1015.89
2019-02-18T02:06:05.361Z,1015.88
2019-02-18T02:07:05.351Z,1015.90
2019-02-18T02:08:05.339Z,1015.87
2019-02-18T02:09:05.330Z,1015.87
2019-02-18T02:10:05.319Z,1015.86
2019-02-18T02:11:05.315Z,1015.90
2019-02-18T02:12:05.297Z,1015.86
2019-02-18T02:13:05.285Z,1015.79
2019-02-18T02:14:05.274Z,1015.81
2019-02-18T02:15:05.263Z,1015.84
2019-02-18T02:16:05.252Z,1015.87
2019-02-18T02:17:05.240Z,1015.82
2019-02-18T02:18:05.234Z,1015.85
2019-02-18T02:19:05.219Z,1015.85
2019-02-18T02:20:05.208Z,1015.82
2019-02-18T02:21:05.199Z,1015.81
2019-02-18T02:22:05.186Z,1015.84
2019-02-18T02:23:05.175Z,1015.79
2019-02-18T02:24:05.166Z,1015.83
2019-02-18T02:25:05.153Z,1015.78
2019-02-18T02:26:05.145Z,1015.76
2019-02-18T02:27:05.132Z,1015.80
2019-02-18T02:28:05.122Z,1015.80
2019-02-18T02:29:05.111Z,1015.73
2019-02-18T02:30:05.099Z,1015.74
2019-02-18T02:31:05.088Z,1015.75
2019-02-18T02:32:05.076Z,1015.72
2019-02-18T02:33:05.066Z,1015.77
2019-02-18T02:34:05.062Z,1015.74
2019-02-18T02:35:05.044Z,1015.75
2019-02-18T02:36:05.036Z,1015.76
2019-02-18T02:37:05.022Z,1015.75
2019-02-18T02:38:08.007Z,1015.72
2019-02-18T02:39:05.005Z,1015.71
2019-02-18T02:40:04.992Z,1015.69
2019-02-18T02:41:04.979Z,1015.71
2019-02-18T02:42:04.967Z,1015.76
2019-02-18T02:43:04.958Z,1015.68
2019-02-18T02:44:04.944Z,1015.77
2019-02-18T02:45:04.936Z,1015.76
2019-02-18T02:46:04.928Z,1015.70
2019-02-18T02:47:04.912Z,1015.73
2019-02-18T02:48:04.902Z,1015.68
2019-02-18T02:49:04.891Z,1015.68
2019-02-18T02:50:04.888Z,1015.64
2019-02-18T02:51:04.873Z,1015.67
2019-02-18T02:52:04.862Z,1015.69
2019-02-18T02:53:04.850Z,1015.62
2019-02-18T02:54:04.838Z,1015.63
2019-02-18T02:55:04.826Z,1015.61
2019-02-18T02:56:04.816Z,1015.59
2019-02-18T02:57:04.804Z,1015.61
2019-02-18T02:58:04.794Z,1015.56
2019-02-18T02:59:04.781Z,1015.62
2019-02-18T03:00:04.771Z,1015.57
2019-02-18T03:01:04.762Z,1015.60
2019-02-18T03:02:04.749Z,1015.54
2019-02-18T03:03:04.739Z,1015.56
2019-02-18T03:04:04.730Z,1015.50
2019-02-18T03:05:04.713Z,1015.51
2019-02-18T03:06:04.704Z,1015.49
2019-02-18T03:07:04.693Z,1015.55
2019-02-18T03:08:04.688Z,1015.52
2019-02-18T03:09:04.679Z,1015.50
2019-02-18T03:10:04.663Z,1015.51
2019-02-18T03:11:04.649Z,1015.49
2019-02-18T03:12:04.638Z,1015.48
2019-02-18T03:13:04.629Z,1015.49
2019-02-18T03:14:04.615Z,1015.47
2019-02-18T03:15:04.608Z,1015.47
2019-02-18T03:16:04.595Z,1015.49
2019-02-18T03:17:04.585Z,1015.51
2019-02-18T03:18:04.572Z,1015.53
2019-02-18T03:19:04.562Z,1015.53
2019-02-18T03:20:04.551Z,1015.54
2019-02-18T03:21:04.543Z,1015.59
2019-02-18T03:22:04.538Z,1015.52
2019-02-18T03:23:04.516Z,1015.55
2019-02-18T03:24:04.506Z,1015.55
2019-02-18T03:25:04.494Z,1015.57
2019-02-18T03:26:04.485Z,1015.55
2019-02-18T03:27:04.474Z,1015.56
2019-02-18T03:28:04.463Z,1015.57
2019-02-18T03:29:04.453Z,1015.58
2019-02-18T03:30:04.439Z,1015.57
2019-02-18T03:31:04.439Z,1015.57
2019-02-18T03:32:04.419Z,1015.57
2019-02-18T03:33:04.426Z,1015.57
2019-02-18T03:34:04.398Z,1015.60
2019-02-18T03:35:04.386Z,1015.59
2019-02-18T03:36:04.380Z,1015.59
2019-02-18T03:37:04.367Z,1015.55
2019-02-18T03:38:04.354Z,1015.57
2019-02-18T03:39:04.342Z,1015.56
2019-02-18T03:40:04.331Z,1015.54
2019-02-18T03:41:04.319Z,1015.60
2019-02-18T03:42:04.309Z,1015.63
2019-02-18T03:43:04.300Z,1015.61
2019-02-18T03:44:04.288Z,1015.62
2019-02-18T03:45:04.278Z,1015.61
2019-02-18T03:46:04.264Z,1015.63
2019-02-18T03:47:04.253Z,1015.64
2019-02-18T03:48:04.245Z,1015.64
2019-02-18T03:49:04.232Z,1015.64
2019-02-18T03:50:04.222Z,1015.62
2019-02-18T03:51:04.217Z,1015.63
2019-02-18T03:52:04.197Z,1015.66
2019-02-18T03:53:04.188Z,1015.62
2019-02-18T03:54:04.175Z,1015.61
2019-02-18T03:55:04.164Z,1015.61
2019-02-18T03:56:04.155Z,1015.60
2019-02-18T03:57:04.147Z,1015.62
2019-02-18T03:58:04.131Z,1015.59
2019-02-18T03:59:04.120Z,1015.55
2019-02-18T04:00:04.112Z,1015.58
2019-02-18T04:01:04.115Z,1015.54
2019-02-18T04:02:04.091Z,1015.54
2019-02-18T04:03:04.077Z,1015.53
2019-02-18T04:04:04.070Z,1015.51
2019-02-18T04:05:04.055Z,1015.55
2019-02-18T04:06:04.042Z,1015.57
2019-02-18T04:07:04.031Z,1015.47
2019-02-18T04:08:04.024Z,1015.48
2019-02-18T04:09:04.010Z,1015.50
2019-02-18T04:10:04.000Z,1015.50
2019-02-18T04:11:03.988Z,1015.54
2019-02-18T04:12:03.978Z,1015.50
2019-02-18T04:13:03.966Z,1015.57
2019-02-18T04:14:03.954Z,1015.56
2019-02-18T04:15:03.945Z,1015.57
2019-02-18T04:16:03.933Z,1015.60
2019-02-18T04:17:03.929Z,1015.62
2019-02-18T04:18:03.912Z,1015.60
2019-02-18T04:19:03.899Z,1015.62
2019-02-18T04:20:03.889Z,1015.59
2019-02-18T04:21:03.877Z,1015.60
2019-02-18T04:22:03.867Z,1015.60
2019-02-18T04:23:03.858Z,1015.61
2019-02-18T04:24:03.844Z,1015.63
2019-02-18T04:25:03.834Z,1015.60
2019-02-18T04:26:03.822Z,1015.57
2019-02-18T04:27:03.813Z,1015.56
2019-02-18T04:28:03.805Z,1015.52
2019-02-18T04:29:03.810Z,1015.57
2019-02-18T04:30:03.779Z,1015.57
2019-02-18T04:31:03.766Z,1015.54
2019-02-18T04:32:03.757Z,1015.54
2019-02-18T04:33:03.748Z,1015.50
2019-02-18T04:34:03.734Z,1015.54
2019-02-18T04:35:03.723Z,1015.46
2019-02-18T04:36:03.715Z,1015.50
2019-02-18T04:37:03.706Z,1015.52
2019-02-18T04:38:03.693Z,1015.51
2019-02-18T04:39:03.680Z,1015.50
2019-02-18T04:40:03.668Z,1015.48
2019-02-18T04:41:03.658Z,1015.51
2019-02-18T04:42:03.648Z,1015.43
2019-02-18T04:43:03.639Z,1015.51
2019-02-18T04:44:03.633Z,1015.51
2019-02-18T04:45:03.614Z,1015.48
2019-02-18T04:46:03.608Z,1015.50
2019-02-18T04:47:03.593Z,1015.49
2019-02-18T04:48:03.584Z,1015.51
2019-02-18T04:49:03.572Z,1015.46
2019-02-18T04:50:03.578Z,1015.45
2019-02-18T04:51:03.554Z,1015.47
2019-02-18T04:52:03.618Z,1015.50
2019-02-18T04:53:03.527Z,1015.52
2019-02-18T04:54:03.524Z,1015.47
2019-02-18T04:55:03.508Z,1015.50
2019-02-18T04:56:03.502Z,1015.49
2019-02-18T04:57:03.483Z,1015.48
2019-02-18T04:58:06.033Z,1015.45
2019-02-18T04:59:03.466Z,1015.53
2019-02-18T05:00:03.454Z,1015.48
2019-02-18T05:01:03.450Z,1015.49
2019-02-18T05:02:03.433Z,1015.52
2019-02-18T05:03:03.418Z,1015.48
2019-02-18T05:04:03.409Z,1015.45
2019-02-18T05:05:03.402Z,1015.48
2019-02-18T05:06:03.387Z,1015.45
2019-02-18T05:07:03.382Z,1015.46
2019-02-18T05:08:03.365Z,1015.49
2019-02-18T05:09:05.701Z,1015.54
2019-02-18T05:10:03.347Z,1015.47
2019-02-18T05:11:03.332Z,1015.51
2019-02-18T05:12:03.328Z,1015.49
2019-02-18T05:13:03.318Z,1015.44
2019-02-18T05:14:03.299Z,1015.41
2019-02-18T05:15:03.289Z,1015.43
2019-02-18T05:16:03.280Z,1015.38
2019-02-18T05:17:03.270Z,1015.35
2019-02-18T05:18:03.269Z,1015.31
2019-02-18T05:19:03.248Z,1015.32
2019-02-18T05:20:03.233Z,1015.32
2019-02-18T05:21:03.226Z,1015.34
2019-02-18T05:22:03.217Z,1015.28
2019-02-18T05:23:03.201Z,1015.25
2019-02-18T05:24:03.193Z,1015.28
2019-02-18T05:25:03.178Z,1015.25
2019-02-18T05:26:03.169Z,1015.25
2019-02-18T05:27:03.161Z,1015.30
2019-02-18T05:28:03.146Z,1015.28
2019-02-18T05:29:03.140Z,1015.35
2019-02-18T05:30:03.124Z,1015.33
2019-02-18T05:31:03.115Z,1015.35
2019-02-18T05:32:03.102Z,1015.27
2019-02-18T05:33:03.093Z,1015.25
2019-02-18T05:34:03.087Z,1015.34
2019-02-18T05:35:03.072Z,1015.33
2019-02-18T05:36:03.061Z,1015.30
2019-02-18T05:37:03.051Z,1015.35
2019-02-18T05:38:03.114Z,1015.31
2019-02-18T05:39:03.025Z,1015.34
2019-02-18T05:40:03.031Z,1015.31
2019-02-18T05:41:03.003Z,1015.28
2019-02-18T05:42:03.001Z,1015.31
2019-02-18T05:43:02.988Z,1015.31
2019-02-18T05:44:02.979Z,1015.29
2019-02-18T05:45:02.963Z,1015.29
2019-02-18T05:46:02.954Z,1015.27
2019-02-18T05:47:02.944Z,1015.26
2019-02-18T05:48:02.933Z,1015.26
2019-02-18T05:49:02.919Z,1015.27
2019-02-18T05:50:02.911Z,1015.24
2019-02-18T05:51:02.897Z,1015.30
2019-02-18T05:52:02.905Z,1015.27
2019-02-18T05:53:02.876Z,1015.22
2019-02-18T05:54:02.870Z,1015.26
2019-02-18T05:55:02.853Z,1015.28
2019-02-18T05:56:02.885Z,1015.32
2019-02-18T05:57:02.833Z,1015.37
2019-02-18T05:58:02.822Z,1015.32
2019-02-18T05:59:02.813Z,1015.29
2019-02-18T06:00:02.798Z,1015.33
2019-02-18T06:01:02.790Z,1015.34
2019-02-18T06:02:02.778Z,1015.27
2019-02-18T06:03:02.766Z,1015.28
2019-02-18T06:04:02.756Z,1015.34
2019-02-18T06:05:02.749Z,1015.33
2019-02-18T06:06:02.735Z,1015.34
2019-02-18T06:07:02.725Z,1015.37
2019-02-18T06:08:02.715Z,1015.30
2019-02-18T06:09:02.702Z,1015.38
2019-02-18T06:10:02.691Z,1015.30
2019-02-18T06:11:02.684Z,1015.33
2019-02-18T06:12:02.669Z,1015.32
2019-02-18T06:13:02.658Z,1015.35
2019-02-18T06:14:02.646Z,1015.33
2019-02-18T06:15:02.637Z,1015.37
2019-02-18T06:16:02.629Z,1015.39
2019-02-18T06:17:02.943Z,1015.40
2019-02-18T06:18:02.603Z,1015.39
2019-02-18T06:19:02.593Z,1015.38
2019-02-18T06:20:02.582Z,1015.37
2019-02-18T06:21:02.572Z,1015.37
2019-02-18T06:22:02.560Z,1015.40
2019-02-18T06:23:02.551Z,1015.42
2019-02-18T06:24:02.538Z,1015.43
2019-02-18T06:25:02.529Z,1015.41
2019-02-18T06:26:02.520Z,1015.40
2019-02-18T06:27:02.507Z,1015.43
2019-02-18T06:28:04.884Z,1015.41
2019-02-18T06:29:02.484Z,1015.40
2019-02-18T06:30:02.480Z,1015.44
2019-02-18T06:31:02.462Z,1015.49
2019-02-18T06:32:02.453Z,1015.45
2019-02-18T06:33:02.447Z,1015.45
2019-02-18T06:34:02.433Z,1015.48
2019-02-18T06:35:02.419Z,1015.49
2019-02-18T06:36:02.407Z,1015.47
2019-02-18T06:37:02.399Z,1015.48
2019-02-18T06:38:02.393Z,1015.45
2019-02-18T06:39:02.380Z,1015.49
2019-02-18T06:40:02.368Z,1015.50
2019-02-18T06:41:02.354Z,1015.47
2019-02-18T06:42:02.342Z,1015.51
2019-02-18T06:43:02.331Z,1015.49
2019-02-18T06:44:02.323Z,1015.45
2019-02-18T06:45:02.312Z,1015.46
2019-02-18T06:46:02.299Z,1015.48
2019-02-18T06:47:02.293Z,1015.54
2019-02-18T06:48:02.276Z,1015.48
2019-02-18T06:49:02.266Z,1015.55
2019-02-18T06:50:02.257Z,1015.58
2019-02-18T06:51:02.250Z,1015.55
2019-02-18T06:52:02.238Z,1015.62
2019-02-18T06:53:02.223Z,1015.66
2019-02-18T06:54:02.212Z,1015.59
2019-02-18T06:55:02.201Z,1015.62
2019-02-18T06:56:02.189Z,1015.61
2019-02-18T06:57:02.179Z,1015.62
2019-02-18T06:58:02.167Z,1015.59
2019-02-18T06:59:02.156Z,1015.69
2019-02-18T07:00:02.145Z,1015.64
2019-02-18T07:01:02.134Z,1015.67
2019-02-18T07:02:02.121Z,1015.62
2019-02-18T07:03:02.112Z,1015.66
2019-02-18T07:04:02.100Z,1015.64
2019-02-18T07:05:02.093Z,1015.67
2019-02-18T07:06:02.078Z,1015.67
2019-02-18T07:07:02.067Z,1015.73
2019-02-18T07:08:02.058Z,1015.70
2019-02-18T07:09:02.045Z,1015.74
2019-02-18T07:10:02.044Z,1015.72
2019-02-18T07:11:02.029Z,1015.72
2019-02-18T07:12:02.023Z,1015.74
2019-02-18T07:13:02.001Z,1015.73
2019-02-18T07:14:01.991Z,1015.79
2019-02-18T07:15:01.978Z,1015.76
2019-02-18T07:16:01.973Z,1015.76
2019-02-18T07:17:01.959Z,1015.73
2019-02-18T07:18:01.948Z,1015.73
2019-02-18T07:19:01.936Z,1015.72
2019-02-18T07:20:01.928Z,1015.70
2019-02-18T07:21:01.913Z,1015.69
2019-02-18T07:22:01.903Z,1015.68
2019-02-18T07:23:01.893Z,1015.71
2019-02-18T07:24:01.882Z,1015.67
2019-02-18T07:25:01.878Z,1015.66
2019-02-18T07:26:01.863Z,1015.69
2019-02-18T07:27:01.851Z,1015.67
2019-02-18T07:28:01.836Z,1015.68
2019-02-18T07:29:01.826Z,1015.71
2019-02-18T07:30:01.814Z,1015.72
2019-02-18T07:31:01.875Z,1015.71
2019-02-18T07:32:01.795Z,1015.67
2019-02-18T07:33:01.783Z,1015.71
2019-02-18T07:34:01.772Z,1015.73
2019-02-18T07:35:01.762Z,1015.73
2019-02-18T07:36:01.750Z,1015.72
2019-02-18T07:37:01.739Z,1015.76
2019-02-18T07:38:01.726Z,1015.72
2019-02-18T07:39:01.716Z,1015.73
2019-02-18T07:40:02.394Z,1015.75
2019-02-18T07:41:01.695Z,1015.74
2019-02-18T07:42:01.681Z,1015.76
2019-02-18T07:43:01.674Z,1015.74
2019-02-18T07:44:01.660Z,1015.72
2019-02-18T07:45:01.649Z,1015.74
2019-02-18T07:46:01.637Z,1015.72
2019-02-18T07:47:01.636Z,1015.71
2019-02-18T07:48:01.617Z,1015.72
2019-02-18T07:49:01.607Z,1015.76
2019-02-18T07:50:01.597Z,1015.72
2019-02-18T07:51:01.583Z,1015.74
2019-02-18T07:52:01.575Z,1015.72
2019-02-18T07:53:01.561Z,1015.73
2019-02-18T07:54:19.696Z,1015.77
2019-02-18T07:55:43.087Z,1015.76
2019-02-18T07:56:43.075Z,1015.76
2019-02-18T07:57:43.065Z,1015.75
2019-02-18T07:58:43.055Z,1015.76
2019-02-18T07:59:43.056Z,1015.73
2019-02-18T08:00:43.035Z,1015.68
2019-02-18T08:01:43.020Z,1015.69
2019-02-18T08:02:43.027Z,1015.71
2019-02-18T08:03:43.000Z,1015.70
2019-02-18T08:04:43.023Z,1015.69
2019-02-18T08:05:43.041Z,1015.68
2019-02-18T08:06:42.966Z,1015.68
2019-02-18T08:07:42.958Z,1015.72
2019-02-18T08:08:42.944Z,1015.74
2019-02-18T08:09:42.931Z,1015.70
2019-02-18T08:10:42.925Z,1015.72
2019-02-18T08:11:42.923Z,1015.69
2019-02-18T08:12:42.904Z,1015.70
2019-02-18T08:13:42.889Z,1015.72
2019-02-18T08:14:42.881Z,1015.66
2019-02-18T08:15:42.866Z,1015.68
2019-02-18T08:16:42.859Z,1015.67
2019-02-18T08:17:42.846Z,1015.67
2019-02-18T08:18:42.834Z,1015.69
2019-02-18T08:19:42.821Z,1015.68
2019-02-18T08:20:42.811Z,1015.69
2019-02-18T08:21:42.799Z,1015.74
2019-02-18T08:22:42.798Z,1015.76
2019-02-18T08:23:42.795Z,1015.75
2019-02-18T08:24:42.789Z,1015.75
2019-02-18T08:25:42.756Z,1015.76
2019-02-18T08:26:44.180Z,1015.74
2019-02-18T08:27:42.739Z,1015.71
2019-02-18T08:28:42.723Z,1015.71
2019-02-18T08:29:42.725Z,1015.72
2019-02-18T08:30:42.731Z,1015.73
2019-02-18T08:31:42.714Z,1015.72
2019-02-18T08:32:42.697Z,1015.71
2019-02-18T08:33:42.691Z,1015.71
2019-02-18T08:34:42.677Z,1015.71
2019-02-18T08:35:42.667Z,1015.70
2019-02-18T08:36:42.689Z,1015.67
2019-02-18T08:37:42.645Z,1015.66
2019-02-18T08:38:42.629Z,1015.69
2019-02-18T08:39:42.634Z,1015.66
2019-02-18T08:40:42.621Z,1015.64
2019-02-18T08:41:42.598Z,1015.65
2019-02-18T08:42:42.594Z,1015.66
2019-02-18T08:43:42.575Z,1015.65
2019-02-18T08:44:42.573Z,1015.63
2019-02-18T08:45:42.560Z,1015.66
2019-02-18T08:46:42.539Z,1015.64
2019-02-18T08:47:42.537Z,1015.70
2019-02-18T08:48:42.526Z,1015.73
2019-02-18T08:49:42.505Z,1015.70
2019-02-18T08:50:42.492Z,1015.74
2019-02-18T08:51:42.530Z,1015.73
2019-02-18T08:52:42.496Z,1015.72
2019-02-18T08:53:42.473Z,1015.71
2019-02-18T08:54:42.442Z,1015.72
2019-02-18T08:55:42.440Z,1015.73
2019-02-18T08:56:42.426Z,1015.74
2019-02-18T08:57:42.430Z,1015.67
2019-02-18T08:58:42.421Z,1015.73
2019-02-18T08:59:42.414Z,1015.69
2019-02-18T09:00:42.403Z,1015.73
2019-02-18T09:01:42.391Z,1015.70
2019-02-18T09:02:42.376Z,1015.72
2019-02-18T09:03:42.358Z,1015.75
2019-02-18T09:04:42.340Z,1015.74
2019-02-18T09:05:42.346Z,1015.75
2019-02-18T09:06:42.343Z,1015.71
2019-02-18T09:07:42.297Z,1015.72
2019-02-18T09:08:42.297Z,1015.71
2019-02-18T09:09:42.296Z,1015.68
2019-02-18T09:10:42.293Z,1015.70
2019-02-18T09:11:42.274Z,1015.69
2019-02-18T09:12:42.271Z,1015.68
2019-02-18T09:13:42.247Z,1015.66
2019-02-18T09:14:42.216Z,1015.65
2019-02-18T09:15:42.227Z,1015.66
2019-02-18T09:16:42.221Z,1015.62
2019-02-18T09:17:42.210Z,1015.67
2019-02-18T09:18:42.198Z,1015.69
2019-02-18T09:19:42.182Z,1015.69
2019-02-18T09:20:42.188Z,1015.66
2019-02-18T09:21:42.158Z,1015.64
2019-02-18T09:22:42.151Z,1015.62
2019-02-18T09:23:42.154Z,1015.63
2019-02-18T09:24:42.125Z,1015.63
2019-02-18T09:25:43.470Z,1015.57
2019-02-18T09:26:42.111Z,1015.64
2019-02-18T09:27:42.102Z,1015.62
2019-02-18T09:28:42.094Z,1015.64
2019-02-18T09:29:42.072Z,1015.65
2019-02-18T09:30:42.065Z,1015.61
2019-02-18T09:31:42.910Z,1015.60
2019-02-18T09:32:42.046Z,1015.62
2019-02-18T09:33:42.035Z,1015.59
2019-02-18T09:34:42.012Z,1015.54
2019-02-18T09:35:42.037Z,1015.53
2019-02-18T09:36:41.991Z,1015.53
2019-02-18T09:37:41.998Z,1015.53
2019-02-18T09:38:41.950Z,1015.47
2019-02-18T09:39:41.960Z,1015.46
2019-02-18T09:40:44.685Z,1015.48
2019-02-18T09:41:42.921Z,1015.49
2019-02-18T09:42:41.906Z,1015.48
2019-02-18T09:43:41.894Z,1015.49
2019-02-18T09:44:41.885Z,1015.48
2019-02-18T09:45:41.874Z,1015.49
2019-02-18T09:46:41.862Z,1015.51
2019-02-18T09:47:41.856Z,1015.42
2019-02-18T09:48:41.839Z,1015.46
2019-02-18T09:49:41.829Z,1015.43
2019-02-18T09:50:41.819Z,1015.46
2019-02-18T09:51:41.811Z,1015.45
2019-02-18T09:52:41.795Z,1015.41
2019-02-18T09:53:41.791Z,1015.41
2019-02-18T09:54:41.772Z,1015.44
2019-02-18T09:55:41.762Z,1015.40
2019-02-18T09:56:41.751Z,1015.38
2019-02-18T09:57:41.741Z,1015.41
2019-02-18T09:58:41.729Z,1015.38
2019-02-18T09:59:41.717Z,1015.39
2019-02-18T10:00:41.712Z,1015.37
2019-02-18T10:01:43.301Z,1015.36
2019-02-18T10:02:59.835Z,1015.37
2019-02-18T10:04:12.150Z,1015.37
2019-02-18T10:05:12.135Z,1015.35
2019-02-18T10:06:55.006Z,1015.39
2019-02-18T10:07:53.659Z,1015.34
2019-02-18T10:09:35.193Z,1015.33
2019-02-18T10:10:35.182Z,1015.29
2019-02-18T10:12:18.654Z,1015.34
2019-02-18T10:13:16.707Z,1015.35
2019-02-18T10:14:47.174Z,1015.39
2019-02-18T10:15:47.159Z,1015.39
2019-02-18T10:17:28.696Z,1015.35
2019-02-18T10:18:28.681Z,1015.39
2019-02-18T10:20:10.217Z,1015.36
2019-02-18T10:21:10.203Z,1015.36
2019-02-18T10:22:51.743Z,1015.38
2019-02-18T10:23:51.728Z,1015.32
2019-02-18T10:25:33.264Z,1015.39
2019-02-18T10:26:33.251Z,1015.36
2019-02-18T10:28:15.798Z,1015.37
2019-02-18T10:29:15.784Z,1015.34
2019-02-18T10:30:57.327Z,1015.36
2019-02-18T10:31:57.329Z,1015.32
2019-02-18T10:32:57.299Z,1015.30
2019-02-18T10:33:57.286Z,1015.32
2019-02-18T10:34:57.278Z,1015.32
2019-02-18T10:35:57.266Z,1015.30
2019-02-18T10:36:57.254Z,1015.29
2019-02-18T10:37:57.244Z,1015.27
2019-02-18T10:38:57.230Z,1015.30
2019-02-18T10:39:57.220Z,1015.26
2019-02-18T10:41:06.487Z,1015.26
2019-02-18T10:41:58.197Z,1015.23
2019-02-18T10:42:57.188Z,1015.22
2019-02-18T10:43:57.175Z,1015.21
2019-02-18T10:44:57.165Z,1015.20
2019-02-18T10:45:57.152Z,1015.20
2019-02-18T10:46:57.141Z,1015.18
2019-02-18T10:47:57.145Z,1015.17
2019-02-18T10:48:57.119Z,1015.16
2019-02-18T10:49:57.108Z,1015.15
2019-02-18T10:50:57.098Z,1015.10
2019-02-18T10:51:57.085Z,1015.11
2019-02-18T10:52:57.078Z,1015.12
2019-02-18T10:53:57.065Z,1015.10
2019-02-18T10:54:57.052Z,1015.06
2019-02-18T10:55:57.044Z,1015.05
2019-02-18T10:56:57.030Z,1015.06
2019-02-18T10:57:57.018Z,1015.03
2019-02-18T10:58:57.009Z,1015.02
2019-02-18T10:59:59.223Z,1015.08
2019-02-18T11:00:56.985Z,1015.03
2019-02-18T11:01:56.974Z,1015.04
2019-02-18T11:02:56.969Z,1015.05
2019-02-18T11:03:56.954Z,1015.01
2019-02-18T11:04:56.943Z,1015.00
2019-02-18T11:05:56.930Z,1014.98
2019-02-18T11:06:56.920Z,1014.96
2019-02-18T11:07:56.907Z,1014.94
2019-02-18T11:08:56.897Z,1014.95
2019-02-18T11:09:56.886Z,1014.95
2019-02-18T11:10:56.880Z,1014.93
2019-02-18T11:11:56.861Z,1014.91
2019-02-18T11:12:56.851Z,1014.86
2019-02-18T11:13:56.844Z,1014.87
2019-02-18T11:14:56.828Z,1014.87
2019-02-18T11:15:56.820Z,1014.88
2019-02-18T11:16:56.807Z,1014.83
2019-02-18T11:17:56.793Z,1014.84
2019-02-18T11:18:56.784Z,1014.83
2019-02-18T11:19:56.776Z,1014.76
2019-02-18T11:20:56.760Z,1014.78
2019-02-18T11:21:56.750Z,1014.78
2019-02-18T11:22:56.738Z,1014.76
2019-02-18T11:23:56.727Z,1014.72
2019-02-18T11:24:56.718Z,1014.71
2019-02-18T11:25:56.705Z,1014.72
2019-02-18T11:26:56.701Z,1014.73
2019-02-18T11:27:56.694Z,1014.72
2019-02-18T11:28:56.672Z,1014.71
2019-02-18T11:29:56.660Z,1014.69
2019-02-18T11:30:56.653Z,1014.65
2019-02-18T11:31:56.639Z,1014.64
2019-02-18T11:32:56.629Z,1014.60
2019-02-18T11:33:56.622Z,1014.59
2019-02-18T11:34:56.604Z,1014.64
2019-02-18T11:35:56.593Z,1014.62
2019-02-18T11:36:56.590Z,1014.62
2019-02-18T11:37:56.571Z,1014.60
2019-02-18T11:38:56.560Z,1014.60
2019-02-18T11:39:56.550Z,1014.59
2019-02-18T11:40:56.537Z,1014.59
2019-02-18T11:41:56.525Z,1014.62
2019-02-18T11:42:56.513Z,1014.63
2019-02-18T11:43:56.504Z,1014.59
2019-02-18T11:44:56.491Z,1014.58
2019-02-18T11:45:56.482Z,1014.57
2019-02-18T11:46:56.469Z,1014.57
2019-02-18T11:47:56.458Z,1014.53
2019-02-18T11:48:56.447Z,1014.54
2019-02-18T11:49:56.438Z,1014.57
2019-02-18T11:50:56.424Z,1014.49
2019-02-18T11:51:56.413Z,1014.51
2019-02-18T11:52:56.407Z,1014.51
2019-02-18T11:53:56.391Z,1014.51
2019-02-18T11:54:56.379Z,1014.48
2019-02-18T11:55:56.371Z,1014.45
2019-02-18T11:56:56.357Z,1014.46
2019-02-18T11:57:56.364Z,1014.44
2019-02-18T11:58:56.337Z,1014.44
2019-02-18T11:59:56.323Z,1014.39
2019-02-18T12:00:56.313Z,1014.44
2019-02-18T12:01:56.302Z,1014.36
2019-02-18T12:03:03.650Z,1014.37
2019-02-18T12:03:57.277Z,1014.35
2019-02-18T12:04:56.269Z,1014.34
2019-02-18T12:05:56.254Z,1014.33
2019-02-18T12:06:56.244Z,1014.30
2019-02-18T12:07:56.232Z,1014.28
2019-02-18T12:08:56.223Z,1014.28
2019-02-18T12:09:56.212Z,1014.26
2019-02-18T12:10:56.207Z,1014.26
2019-02-18T12:11:56.189Z,1014.23
2019-02-18T12:12:56.176Z,1014.21